createdAt,value
2022-11-08T00:01:02.303Z,11.50
2022-11-08T00:03:32.537Z,11.50
2022-11-08T00:06:15.047Z,11.50
2022-11-08T00:08:57.408Z,11.40
2022-11-08T00:11:39.787Z,11.40
2022-11-08T00:14:12.429Z,11.40
2022-11-08T00:16:42.235Z,11.40
2022-11-08T00:19:12.048Z,11.40
2022-11-08T00:21:41.864Z,11.40
2022-11-08T00:24:12.212Z,11.40
2022-11-08T00:26:42.006Z,11.40
2022-11-08T00:29:14.413Z,11.40
2022-11-08T00:31:44.311Z,11.30
2022-11-08T00:34:14.206Z,11.30
2022-11-08T00:36:44.018Z,11.30
2022-11-08T00:39:14.292Z,11.30
2022-11-08T00:41:44.109Z,11.20
2022-11-08T00:44:16.542Z,11.30
2022-11-08T00:46:46.506Z,11.20
2022-11-08T00:49:16.311Z,11.10
2022-11-08T00:51:46.146Z,11.10
2022-11-08T00:54:19.099Z,11.10
2022-11-08T00:56:49.118Z,11.00
2022-11-08T00:59:22.687Z,11.00
2022-11-08T01:01:52.831Z,11.00
2022-11-08T01:04:23.407Z,11.00
2022-11-08T01:06:53.244Z,10.90
2022-11-08T01:09:23.118Z,10.90
2022-11-08T01:11:52.944Z,10.80
2022-11-08T01:14:25.395Z,10.80
2022-11-08T01:16:55.215Z,10.80
2022-11-08T01:19:25.045Z,10.80
2022-11-08T01:21:54.896Z,10.70
2022-11-08T01:24:24.731Z,10.80
2022-11-08T01:26:54.558Z,10.70
2022-11-08T01:29:26.955Z,10.70
2022-11-08T01:31:56.795Z,10.70
2022-11-08T01:34:26.607Z,10.60
2022-11-08T01:36:56.444Z,10.60
2022-11-08T01:39:26.263Z,10.60
2022-11-08T01:41:56.103Z,10.60
2022-11-08T01:44:28.519Z,10.60
2022-11-08T01:46:58.422Z,10.60
2022-11-08T01:49:41.447Z,10.50
2022-11-08T01:52:33.418Z,10.50
2022-11-08T01:55:11.391Z,10.50
2022-11-08T01:57:49.924Z,10.50
2022-11-08T02:00:22.843Z,10.50
2022-11-08T02:02:58.447Z,10.50
2022-11-08T02:05:29.593Z,10.50
2022-11-08T02:08:04.248Z,10.50
2022-11-08T02:10:37.462Z,10.50
2022-11-08T02:13:14.866Z,10.40
2022-11-08T02:15:48.424Z,10.40
2022-11-08T02:18:21.416Z,10.40
2022-11-08T02:21:03.822Z,10.40
2022-11-08T02:23:48.774Z,10.40
2022-11-08T02:26:19.651Z,10.40
2022-11-08T02:28:51.787Z,10.40
2022-11-08T02:31:23.328Z,10.40
2022-11-08T02:33:53.712Z,10.40
2022-11-08T02:36:25.859Z,10.50
2022-11-08T02:39:00.990Z,10.50
2022-11-08T02:41:30.802Z,10.50
2022-11-08T02:44:00.745Z,10.50
2022-11-08T02:46:30.541Z,10.50
2022-11-08T02:49:00.348Z,10.50
2022-11-08T02:51:30.158Z,10.50
2022-11-08T02:54:03.248Z,10.50
2022-11-08T02:56:33.814Z,10.50
2022-11-08T02:59:03.707Z,10.50
2022-11-08T03:01:33.570Z,10.50
2022-11-08T03:04:03.516Z,10.50
2022-11-08T03:06:33.335Z,10.50
2022-11-08T03:09:06.275Z,10.40
2022-11-08T03:11:36.169Z,10.40
2022-11-08T03:14:06.230Z,10.40
2022-11-08T03:16:36.027Z,10.40
2022-11-08T03:19:06.153Z,10.40
2022-11-08T03:21:38.500Z,10.40
2022-11-08T03:24:13.476Z,10.40
2022-11-08T03:26:43.301Z,10.30
2022-11-08T03:29:13.106Z,10.30
2022-11-08T03:31:42.913Z,10.30
2022-11-08T03:34:12.906Z,10.30
2022-11-08T03:36:42.717Z,10.20
2022-11-08T03:39:16.268Z,10.20
2022-11-08T03:41:46.088Z,10.20
2022-11-08T03:44:15.885Z,10.20
2022-11-08T03:46:45.662Z,10.20
2022-11-08T03:49:15.467Z,10.20
2022-11-08T03:51:45.327Z,10.20
2022-11-08T03:54:18.022Z,10.10
2022-11-08T03:56:47.820Z,10.10
2022-11-08T03:59:17.866Z,10.00
2022-11-08T04:01:47.817Z,10.00
2022-11-08T04:04:17.727Z,10.00
2022-11-08T04:06:47.536Z,10.00
2022-11-08T04:09:21.637Z,10.00
2022-11-08T04:12:04.183Z,10.00
2022-11-08T04:14:46.514Z,9.90
2022-11-08T04:17:16.305Z,9.90
2022-11-08T04:19:58.627Z,9.90
2022-11-08T04:22:28.457Z,9.90
2022-11-08T04:25:00.840Z,9.90
2022-11-08T04:27:30.890Z,9.80
2022-11-08T04:30:00.695Z,9.80
2022-11-08T04:32:30.505Z,9.80
2022-11-08T04:35:00.299Z,9.80
2022-11-08T04:37:30.150Z,9.70
2022-11-08T04:40:02.534Z,9.70
2022-11-08T04:42:32.380Z,9.70
2022-11-08T04:45:02.184Z,9.70
2022-11-08T04:47:37.671Z,9.60
2022-11-08T04:50:10.731Z,9.60
2022-11-08T04:52:40.643Z,9.60
2022-11-08T04:55:13.256Z,9.60
2022-11-08T04:57:43.086Z,9.60
2022-11-08T05:00:15.330Z,9.60
2022-11-08T05:02:45.523Z,9.60
2022-11-08T05:05:15.363Z,9.50
2022-11-08T05:07:45.170Z,9.60
2022-11-08T05:10:17.809Z,9.60
2022-11-08T05:12:47.647Z,9.60
2022-11-08T05:15:17.666Z,9.50
2022-11-08T05:17:47.471Z,9.50
2022-11-08T05:20:29.886Z,9.50
2022-11-08T05:23:16.758Z,9.50
2022-11-08T05:25:49.219Z,9.40
2022-11-08T05:28:19.668Z,9.40
2022-11-08T05:30:56.139Z,9.50
2022-11-08T05:33:26.560Z,9.50
2022-11-08T05:35:56.424Z,9.40
2022-11-08T05:38:26.276Z,9.50
2022-11-08T05:40:58.667Z,9.50
2022-11-08T05:43:28.485Z,9.50
2022-11-08T05:45:58.430Z,9.50
2022-11-08T05:48:28.520Z,9.40
2022-11-08T05:50:58.887Z,9.30
2022-11-08T05:53:28.943Z,9.40
2022-11-08T05:56:05.580Z,9.30
2022-11-08T05:58:38.094Z,9.30
2022-11-08T06:01:10.806Z,9.20
2022-11-08T06:03:41.570Z,9.20
2022-11-08T06:06:13.875Z,9.20
2022-11-08T06:08:48.883Z,9.20
2022-11-08T06:11:25.115Z,9.10
2022-11-08T06:13:56.264Z,9.10
2022-11-08T06:16:27.796Z,9.10
2022-11-08T06:18:57.690Z,9.10
2022-11-08T06:21:27.550Z,9.10
2022-11-08T06:23:58.088Z,9.00
2022-11-08T06:26:30.571Z,9.00
2022-11-08T06:29:00.391Z,8.90
2022-11-08T06:31:30.206Z,8.90
2022-11-08T06:34:00.037Z,8.90
2022-11-08T06:36:29.875Z,8.90
2022-11-08T06:39:00.055Z,8.90
2022-11-08T06:41:33.006Z,8.90
2022-11-08T06:44:02.972Z,8.90
2022-11-08T06:46:32.819Z,8.90
2022-11-08T06:49:02.637Z,8.90
2022-11-08T06:51:32.855Z,8.90
2022-11-08T06:54:04.376Z,8.90
2022-11-08T06:56:39.302Z,8.90
2022-11-08T06:59:09.102Z,8.80
2022-11-08T07:01:43.281Z,8.80
2022-11-08T07:04:15.241Z,8.80
2022-11-08T07:06:45.079Z,8.80
2022-11-08T07:09:14.998Z,8.80
2022-11-08T07:11:47.386Z,8.90
2022-11-08T07:14:17.208Z,8.90
2022-11-08T07:16:47.010Z,8.90
2022-11-08T07:19:16.839Z,8.90
2022-11-08T07:21:46.662Z,8.90
2022-11-08T07:24:16.447Z,8.90
2022-11-08T07:26:48.903Z,8.90
2022-11-08T07:29:18.981Z,8.90
2022-11-08T07:31:48.783Z,8.90
2022-11-08T07:34:18.680Z,9.00
2022-11-08T07:36:48.522Z,9.10
2022-11-08T07:39:19.171Z,9.10
2022-11-08T07:41:51.787Z,9.10
2022-11-08T07:44:21.588Z,9.20
2022-11-08T07:46:51.630Z,9.20
2022-11-08T07:49:21.679Z,9.30
2022-11-08T07:51:51.538Z,9.30
2022-11-08T07:54:21.477Z,9.30
2022-11-08T07:56:54.142Z,9.40
2022-11-08T07:59:23.955Z,9.50
2022-11-08T08:01:53.870Z,9.50
2022-11-08T08:04:23.748Z,9.60
2022-11-08T08:06:53.572Z,9.70
2022-11-08T08:09:23.696Z,9.80
2022-11-08T08:11:56.420Z,9.80
2022-11-08T08:14:26.232Z,10.00
2022-11-08T08:16:57.434Z,10.10
2022-11-08T08:19:27.267Z,10.20
2022-11-08T08:21:57.158Z,10.40
2022-11-08T08:24:26.983Z,10.50
2022-11-08T08:26:59.468Z,10.60
2022-11-08T08:29:29.518Z,10.70
2022-11-08T08:31:59.379Z,10.70
2022-11-08T08:34:29.183Z,10.80
2022-11-08T08:36:58.976Z,10.90
2022-11-08T08:39:28.930Z,11.10
2022-11-08T08:42:01.319Z,11.10
2022-11-08T08:44:31.128Z,11.20
2022-11-08T08:47:00.942Z,11.30
2022-11-08T08:49:30.757Z,11.40
2022-11-08T08:52:00.562Z,11.40
2022-11-08T08:54:30.491Z,11.50
2022-11-08T08:57:02.907Z,11.60
2022-11-08T09:02:22.616Z,11.80
2022-11-08T09:04:52.440Z,11.90
2022-11-08T09:07:22.323Z,12.00
2022-11-08T09:09:52.215Z,12.10
2022-11-08T09:12:24.644Z,12.20
2022-11-08T09:14:54.545Z,12.30
2022-11-08T09:17:24.399Z,12.40
2022-11-08T09:19:57.110Z,12.40
2022-11-08T09:22:27.323Z,12.50
2022-11-08T09:24:57.163Z,12.60
2022-11-08T09:27:31.866Z,12.70
2022-11-08T09:30:01.549Z,12.80
2022-11-08T09:32:46.562Z,12.90
2022-11-08T09:35:21.306Z,12.90
2022-11-08T09:37:51.219Z,13.00
2022-11-08T09:40:24.646Z,13.00
2022-11-08T09:43:09.788Z,13.10
2022-11-08T09:45:45.549Z,13.10
2022-11-08T09:48:24.675Z,13.20
2022-11-08T09:50:56.441Z,13.30
2022-11-08T09:53:35.364Z,13.40
2022-11-08T09:56:13.409Z,13.40
2022-11-08T09:58:54.911Z,13.50
2022-11-08T10:01:27.589Z,13.50
2022-11-08T10:04:01.241Z,13.70
2022-11-08T10:06:56.866Z,13.80
2022-11-08T10:09:51.279Z,13.90
2022-11-08T10:12:26.890Z,14.00
2022-11-08T10:15:16.001Z,14.00
2022-11-08T10:18:08.668Z,14.10
2022-11-08T10:20:50.335Z,14.20
2022-11-08T10:23:24.646Z,14.30
2022-11-08T10:26:02.471Z,14.30
2022-11-08T10:28:39.949Z,14.40
2022-11-08T10:31:15.502Z,14.40
2022-11-08T10:33:48.672Z,14.50
2022-11-08T10:36:25.772Z,14.40
2022-11-08T10:39:06.274Z,14.40
2022-11-08T10:41:45.838Z,14.50
2022-11-08T10:44:19.896Z,14.50
2022-11-08T10:46:53.962Z,14.60
2022-11-08T10:49:27.839Z,14.60
2022-11-08T10:52:00.367Z,14.70
2022-11-08T10:54:51.343Z,14.80
2022-11-08T10:57:27.755Z,14.90
2022-11-08T10:59:59.475Z,15.00
2022-11-08T11:02:37.647Z,15.00
2022-11-08T11:05:29.531Z,15.10
2022-11-08T11:08:19.172Z,15.10
2022-11-08T11:10:51.141Z,15.20
2022-11-08T11:16:04.145Z,15.30
2022-11-08T11:18:38.984Z,15.30
2022-11-08T11:21:14.751Z,15.30
2022-11-08T11:23:48.168Z,15.30
2022-11-08T11:26:30.870Z,15.40
2022-11-08T11:29:21.481Z,15.40
2022-11-08T11:31:54.841Z,15.40
2022-11-08T11:34:56.243Z,15.40
2022-11-08T11:37:43.294Z,15.60
2022-11-08T11:40:29.528Z,15.70
2022-11-08T11:43:08.238Z,15.70
2022-11-08T11:45:46.832Z,15.80
2022-11-08T11:48:24.000Z,15.90
2022-11-08T11:50:56.567Z,15.80
2022-11-08T11:53:29.782Z,15.80
2022-11-08T11:56:37.795Z,15.90
2022-11-08T11:59:34.472Z,15.80
2022-11-08T12:02:31.847Z,15.90
2022-11-08T12:05:32.583Z,15.80
2022-11-08T12:08:22.294Z,16.00
2022-11-08T12:11:18.991Z,15.90
2022-11-08T12:14:09.520Z,16.00
2022-11-08T12:16:46.828Z,16.00
2022-11-08T12:19:37.699Z,16.00
2022-11-08T12:22:30.354Z,16.10
2022-11-08T12:25:13.040Z,16.20
2022-11-08T12:27:52.713Z,16.30
2022-11-08T12:30:24.646Z,16.30
2022-11-08T12:33:15.803Z,16.30
2022-11-08T12:36:01.004Z,16.30
2022-11-08T12:38:38.863Z,16.30
2022-11-08T12:41:21.742Z,16.30
2022-11-08T12:44:21.036Z,16.20
2022-11-08T12:47:12.025Z,16.20
2022-11-08T12:49:56.678Z,16.10
2022-11-08T12:52:47.080Z,16.20
2022-11-08T12:55:30.255Z,16.20
2022-11-08T12:58:10.334Z,16.20
2022-11-08T13:00:44.041Z,16.20
2022-11-08T13:03:59.531Z,16.20
2022-11-08T13:06:41.872Z,16.10
2022-11-08T13:09:25.071Z,16.40
2022-11-08T13:12:07.287Z,16.40
2022-11-08T13:14:41.394Z,16.50
2022-11-08T13:17:22.997Z,16.40
2022-11-08T13:20:09.544Z,16.30
2022-11-08T13:23:01.945Z,16.30
2022-11-08T13:25:57.534Z,16.30
2022-11-08T13:28:47.043Z,16.20
2022-11-08T13:31:30.726Z,16.10
2022-11-08T13:34:26.048Z,16.20
2022-11-08T13:37:06.815Z,16.20
2022-11-08T13:40:20.410Z,16.20
2022-11-08T13:43:29.551Z,16.10
2022-11-08T13:46:36.698Z,16.00
2022-11-08T13:49:24.153Z,15.90
2022-11-08T13:52:29.168Z,15.80
2022-11-08T13:54:59.024Z,15.70
2022-11-08T13:58:02.115Z,15.60
2022-11-08T14:00:52.826Z,15.60
2022-11-08T14:03:55.689Z,15.50
2022-11-08T14:06:35.599Z,15.50
2022-11-08T14:09:20.653Z,15.40
2022-11-08T14:11:56.022Z,15.40
2022-11-08T14:14:40.326Z,15.30
2022-11-08T14:17:24.888Z,15.30
2022-11-08T14:19:56.546Z,15.30
2022-11-08T14:22:32.484Z,15.20
2022-11-08T14:25:16.285Z,15.20
2022-11-08T14:27:46.124Z,15.20
2022-11-08T14:30:20.076Z,15.30
2022-11-08T14:32:51.421Z,15.20
2022-11-08T14:35:28.359Z,15.10
2022-11-08T14:38:00.762Z,15.10
2022-11-08T14:40:32.108Z,15.10
2022-11-08T14:43:02.304Z,15.10
2022-11-08T14:45:32.533Z,15.00
2022-11-08T14:48:06.743Z,14.90
2022-11-08T14:53:29.751Z,14.80
2022-11-08T14:56:06.012Z,14.80
2022-11-08T14:58:35.886Z,14.70
2022-11-08T15:01:07.234Z,14.70
2022-11-08T15:03:38.296Z,14.60
2022-11-08T15:06:14.270Z,14.60
2022-11-08T15:08:55.122Z,14.50
2022-11-08T15:11:32.071Z,14.50
2022-11-08T15:14:06.793Z,14.40
2022-11-08T15:16:44.709Z,14.40
2022-11-08T15:19:33.113Z,14.30
2022-11-08T15:22:05.293Z,14.30
2022-11-08T15:24:42.877Z,14.20
2022-11-08T15:27:19.292Z,14.20
2022-11-08T15:29:56.761Z,14.10
2022-11-08T15:32:27.036Z,14.00
2022-11-08T15:34:58.810Z,14.00
2022-11-08T15:37:36.620Z,14.00
2022-11-08T15:40:22.447Z,14.00
2022-11-08T15:42:54.493Z,13.90
2022-11-08T15:45:29.020Z,13.90
2022-11-08T15:48:05.300Z,13.90
2022-11-08T15:50:35.571Z,13.80
2022-11-08T15:53:07.271Z,13.80
2022-11-08T15:55:47.375Z,13.80
2022-11-08T15:58:20.395Z,13.70
2022-11-08T16:00:52.103Z,13.70
2022-11-08T16:03:21.959Z,13.70
2022-11-08T16:05:51.960Z,13.60
2022-11-08T16:08:22.473Z,13.60
2022-11-08T16:10:57.589Z,13.70
2022-11-08T16:13:33.216Z,13.70
2022-11-08T16:16:04.509Z,13.60
2022-11-08T16:18:34.874Z,13.60
2022-11-08T16:21:05.244Z,13.60
2022-11-08T16:23:35.122Z,13.60
2022-11-08T16:26:09.564Z,13.60
2022-11-08T16:28:40.863Z,13.60
2022-11-08T16:31:16.380Z,13.60
2022-11-08T16:33:48.946Z,13.50
2022-11-08T16:36:23.333Z,13.50
2022-11-08T16:38:55.405Z,13.50
2022-11-08T16:41:29.868Z,13.40
2022-11-08T16:44:00.781Z,13.40
2022-11-08T16:46:31.636Z,13.40
2022-11-08T16:49:02.347Z,13.40
2022-11-08T16:51:32.185Z,13.30
2022-11-08T16:54:05.198Z,13.40
2022-11-08T16:56:37.694Z,13.30
2022-11-08T16:59:07.611Z,13.30
2022-11-08T17:01:38.256Z,13.30
2022-11-08T17:04:09.012Z,13.30
2022-11-08T17:06:38.951Z,13.30
2022-11-08T17:09:09.132Z,13.30
2022-11-08T17:11:41.591Z,13.30
2022-11-08T17:14:14.476Z,13.30
2022-11-08T17:16:44.421Z,13.30
2022-11-08T17:19:14.376Z,13.20
2022-11-08T17:21:45.783Z,13.20
2022-11-08T17:24:21.588Z,13.20
2022-11-08T17:26:54.767Z,13.20
2022-11-08T17:29:24.845Z,13.20
2022-11-08T17:31:54.932Z,13.10
2022-11-08T17:34:25.004Z,13.20
2022-11-08T17:36:55.376Z,13.20
2022-11-08T17:39:25.302Z,13.20
2022-11-08T17:41:57.786Z,13.20
2022-11-08T17:44:29.473Z,13.20
2022-11-08T17:46:59.462Z,13.20
2022-11-08T17:49:29.394Z,13.20
2022-11-08T17:51:59.499Z,13.20
2022-11-08T17:54:29.471Z,13.10
2022-11-08T17:57:02.141Z,13.10
2022-11-08T17:59:32.075Z,13.10
2022-11-08T18:02:02.244Z,13.10
2022-11-08T18:04:32.238Z,13.10
2022-11-08T18:07:02.126Z,13.00
2022-11-08T18:09:32.059Z,13.00
2022-11-08T18:12:04.443Z,13.00
2022-11-08T18:14:34.369Z,12.90
2022-11-08T18:17:05.126Z,12.90
2022-11-08T18:19:34.983Z,12.90
2022-11-08T18:22:04.864Z,12.90
2022-11-08T18:24:35.108Z,12.90
2022-11-08T18:27:07.530Z,12.90
2022-11-08T18:29:37.411Z,12.80
2022-11-08T18:32:08.211Z,12.80
2022-11-08T18:34:38.081Z,12.70
2022-11-08T18:37:07.966Z,12.70
2022-11-08T18:39:38.004Z,12.70
2022-11-08T18:42:10.639Z,12.70
2022-11-08T18:44:40.763Z,12.70
2022-11-08T18:47:10.622Z,12.60
2022-11-08T18:49:40.941Z,12.70
2022-11-08T18:52:10.849Z,12.60
2022-11-08T18:54:40.739Z,12.60
2022-11-08T18:57:13.203Z,12.60
2022-11-08T18:59:43.049Z,12.60
2022-11-08T19:02:13.650Z,12.50
2022-11-08T19:04:43.532Z,12.50
2022-11-08T19:07:13.437Z,12.50
2022-11-08T19:09:43.333Z,12.50
2022-11-08T19:12:15.910Z,12.40
2022-11-08T19:14:45.765Z,12.50
2022-11-08T19:17:18.767Z,12.40
2022-11-08T19:19:48.623Z,12.40
2022-11-08T19:22:18.523Z,12.40
2022-11-08T19:24:48.999Z,12.30
2022-11-08T19:27:21.491Z,12.40
2022-11-08T19:29:51.541Z,12.30
2022-11-08T19:32:23.230Z,12.30
2022-11-08T19:34:53.055Z,12.30
2022-11-08T19:37:22.899Z,12.30
2022-11-08T19:39:52.724Z,12.40
2022-11-08T19:42:25.149Z,12.30
2022-11-08T19:44:54.985Z,12.30
2022-11-08T19:47:24.872Z,12.30
2022-11-08T19:49:54.722Z,12.30
2022-11-08T19:52:24.570Z,12.30
2022-11-08T19:54:54.399Z,12.30
2022-11-08T19:57:29.351Z,12.30
2022-11-08T19:59:59.191Z,12.30
2022-11-08T20:02:29.049Z,12.40
2022-11-08T20:04:58.910Z,12.40
2022-11-08T20:07:28.784Z,12.40
2022-11-08T20:09:58.999Z,12.40
2022-11-08T20:12:34.300Z,12.30
2022-11-08T20:15:04.154Z,12.30
2022-11-08T20:17:36.314Z,12.30
2022-11-08T20:20:06.685Z,12.30
2022-11-08T20:22:36.511Z,12.30
2022-11-08T20:25:06.851Z,12.30
2022-11-08T20:27:39.286Z,12.30
2022-11-08T20:30:11.645Z,12.30
2022-11-08T20:32:41.495Z,12.30
2022-11-08T20:35:12.711Z,12.20
2022-11-08T20:37:42.551Z,12.20
2022-11-08T20:40:14.198Z,12.20
2022-11-08T20:42:46.613Z,12.20
2022-11-08T20:45:16.467Z,12.20
2022-11-08T20:47:48.267Z,12.10
2022-11-08T20:50:18.536Z,12.10
2022-11-08T20:52:48.354Z,12.20
2022-11-08T20:55:18.454Z,12.10
2022-11-08T20:57:50.872Z,12.10
2022-11-08T21:00:37.921Z,12.10
2022-11-08T21:03:14.971Z,12.00
2022-11-08T21:05:53.898Z,12.00
2022-11-08T21:11:16.940Z,12.00
2022-11-08T21:13:50.046Z,12.00
2022-11-08T21:16:59.388Z,12.00
2022-11-08T21:19:11.125Z,12.00
2022-11-08T21:21:41.016Z,12.00
2022-11-08T21:24:11.388Z,11.90
2022-11-08T21:26:41.293Z,11.90
2022-11-08T21:29:13.776Z,11.90
2022-11-08T21:31:43.614Z,11.90
2022-11-08T21:34:13.676Z,11.90
2022-11-08T21:36:43.507Z,11.80
2022-11-08T21:39:13.507Z,11.90
2022-11-08T21:41:43.339Z,11.90
2022-11-08T21:44:16.009Z,11.80
2022-11-08T21:46:46.079Z,11.80
2022-11-08T21:49:16.938Z,11.80
2022-11-08T21:51:46.809Z,11.80
2022-11-08T21:54:18.917Z,11.80
2022-11-08T21:56:48.748Z,11.80
2022-11-08T21:59:21.159Z,11.80
2022-11-08T22:01:51.005Z,11.70
2022-11-08T22:04:20.831Z,11.80
2022-11-08T22:06:51.043Z,11.70
2022-11-08T22:09:20.954Z,11.70
2022-11-08T22:11:50.900Z,11.70
2022-11-08T22:14:23.343Z,11.70
2022-11-08T22:16:53.236Z,11.70
2022-11-08T22:19:23.082Z,11.70
2022-11-08T22:21:52.976Z,11.60
2022-11-08T22:24:23.167Z,11.60
2022-11-08T22:26:54.692Z,11.70
2022-11-08T22:29:27.156Z,11.70
2022-11-08T22:31:57.580Z,11.60
2022-11-08T22:34:27.551Z,11.70
2022-11-08T22:36:57.468Z,11.60
2022-11-08T22:39:27.412Z,11.60
2022-11-08T22:41:57.627Z,11.50
2022-11-08T22:44:30.121Z,11.60
2022-11-08T22:46:59.963Z,11.50
2022-11-08T22:49:29.806Z,11.50
2022-11-08T22:51:59.790Z,11.50
2022-11-08T22:54:30.303Z,11.50
2022-11-08T22:57:00.293Z,11.50
2022-11-08T22:59:32.727Z,11.50
2022-11-08T23:02:02.539Z,11.50
2022-11-08T23:04:32.372Z,11.50
2022-11-08T23:07:02.243Z,11.50
2022-11-08T23:09:32.383Z,11.50
2022-11-08T23:12:14.709Z,11.50
2022-11-08T23:14:59.638Z,11.50
2022-11-08T23:17:29.474Z,11.50
2022-11-08T23:20:11.812Z,11.50
2022-11-08T23:22:54.152Z,11.50
2022-11-08T23:25:24.155Z,11.50
2022-11-08T23:28:06.491Z,11.50
2022-11-08T23:30:51.424Z,11.50
2022-11-08T23:33:21.839Z,11.50
2022-11-08T23:36:10.003Z,11.50
2022-11-08T23:38:39.854Z,11.50
2022-11-08T23:41:22.571Z,11.50
2022-11-08T23:44:05.128Z,11.50
2022-11-08T23:46:37.550Z,11.40
2022-11-08T23:49:08.024Z,11.40
2022-11-08T23:51:37.864Z,11.40
2022-11-08T23:54:07.875Z,11.40
2022-11-08T23:56:37.787Z,11.40
2022-11-08T23:59:07.681Z,11.40
